sensor_id;sensor_type;location;lat;lon;timestamp;P1;durP1;ratioP1;P2;durP2;ratioP2
2225;SDS011;1119;48.288;8.726;2023-04-05T00:02:00;6.78;;;6.07;;
2225;SDS011;1119;48.288;8.726;2023-04-05T00:04:47;6.55;;;6.05;;
2225;SDS011;1119;48.288;8.726;2023-04-05T00:07:39;7.15;;;6.60;;
2225;SDS011;1119;48.288;8.726;2023-04-05T00:10:26;7.60;;;6.82;;
2225;SDS011;1119;48.288;8.726;2023-04-05T00:13:15;7.65;;;7.03;;
2225;SDS011;1119;48.288;8.726;2023-04-05T00:16:02;15.57;;;10.50;;
2225;SDS011;1119;48.288;8.726;2023-04-05T00:18:52;9.80;;;8.82;;
2225;SDS011;1119;48.288;8.726;2023-04-05T00:21:44;8.30;;;7.60;;
2225;SDS011;1119;48.288;8.726;2023-04-05T00:24:32;8.15;;;7.40;;
2225;SDS011;1119;48.288;8.726;2023-04-05T00:27:23;6.53;;;6.03;;
2225;SDS011;1119;48.288;8.726;2023-04-05T00:30:11;7.80;;;7.18;;
2225;SDS011;1119;48.288;8.726;2023-04-05T00:33:05;7.32;;;6.72;;
2225;SDS011;1119;48.288;8.726;2023-04-05T00:35:54;8.10;;;6.90;;
2225;SDS011;1119;48.288;8.726;2023-04-05T00:38:42;8.02;;;7.38;;
2225;SDS011;1119;48.288;8.726;2023-04-05T00:41:30;6.43;;;5.93;;
2225;SDS011;1119;48.288;8.726;2023-04-05T00:44:18;8.20;;;6.90;;
2225;SDS011;1119;48.288;8.726;2023-04-05T00:47:06;6.40;;;5.40;;
2225;SDS011;1119;48.288;8.726;2023-04-05T00:49:54;10.90;;;6.77;;
2225;SDS011;1119;48.288;8.726;2023-04-05T00:52:43;9.35;;;5.93;;
2225;SDS011;1119;48.288;8.726;2023-04-05T00:55:33;7.65;;;6.72;;
2225;SDS011;1119;48.288;8.726;2023-04-05T00:58:22;8.20;;;7.30;;
2225;SDS011;1119;48.288;8.726;2023-04-05T01:01:12;6.83;;;6.10;;
2225;SDS011;1119;48.288;8.726;2023-04-05T01:04:04;7.00;;;6.30;;
2225;SDS011;1119;48.288;8.726;2023-04-05T01:06:58;7.80;;;6.95;;
2225;SDS011;1119;48.288;8.726;2023-04-05T01:09:54;7.50;;;6.80;;
2225;SDS011;1119;48.288;8.726;2023-04-05T01:12:43;6.40;;;5.97;;
2225;SDS011;1119;48.288;8.726;2023-04-05T01:15:32;6.50;;;5.90;;
2225;SDS011;1119;48.288;8.726;2023-04-05T01:18:19;7.07;;;6.40;;
2225;SDS011;1119;48.288;8.726;2023-04-05T01:21:14;6.38;;;5.78;;
2225;SDS011;1119;48.288;8.726;2023-04-05T01:24:36;6.85;;;6.35;;
2225;SDS011;1119;48.288;8.726;2023-04-05T01:27:48;12.68;;;10.15;;
2225;SDS011;1119;48.288;8.726;2023-04-05T01:31:12;11.90;;;10.30;;
2225;SDS011;1119;48.288;8.726;2023-04-05T01:34:07;17.00;;;13.70;;
2225;SDS011;1119;48.288;8.726;2023-04-05T01:37:05;10.70;;;9.65;;
2225;SDS011;1119;48.288;8.726;2023-04-05T01:39:57;10.23;;;8.85;;
2225;SDS011;1119;48.288;8.726;2023-04-05T01:42:45;9.43;;;8.43;;
2225;SDS011;1119;48.288;8.726;2023-04-05T01:45:33;7.60;;;7.00;;
2225;SDS011;1119;48.288;8.726;2023-04-05T01:48:24;7.85;;;7.15;;
2225;SDS011;1119;48.288;8.726;2023-04-05T01:51:12;10.50;;;7.85;;
2225;SDS011;1119;48.288;8.726;2023-04-05T01:54:00;7.72;;;7.03;;
2225;SDS011;1119;48.288;8.726;2023-04-05T01:56:47;7.05;;;6.25;;
2225;SDS011;1119;48.288;8.726;2023-04-05T01:59:35;6.88;;;6.28;;
2225;SDS011;1119;48.288;8.726;2023-04-05T02:02:24;8.40;;;6.60;;
2225;SDS011;1119;48.288;8.726;2023-04-05T02:05:13;8.55;;;7.78;;
2225;SDS011;1119;48.288;8.726;2023-04-05T02:08:01;11.93;;;10.82;;
2225;SDS011;1119;48.288;8.726;2023-04-05T02:10:51;9.10;;;8.18;;
2225;SDS011;1119;48.288;8.726;2023-04-05T02:13:39;7.82;;;7.13;;
2225;SDS011;1119;48.288;8.726;2023-04-05T02:16:26;15.70;;;7.15;;
2225;SDS011;1119;48.288;8.726;2023-04-05T02:19:17;8.20;;;7.40;;
2225;SDS011;1119;48.288;8.726;2023-04-05T02:22:08;8.27;;;7.57;;
2225;SDS011;1119;48.288;8.726;2023-04-05T02:24:56;8.38;;;7.57;;
2225;SDS011;1119;48.288;8.726;2023-04-05T02:27:44;7.97;;;7.18;;
2225;SDS011;1119;48.288;8.726;2023-04-05T02:30:33;9.63;;;8.70;;
2225;SDS011;1119;48.288;8.726;2023-04-05T02:33:21;8.63;;;7.20;;
2225;SDS011;1119;48.288;8.726;2023-04-05T02:36:09;13.18;;;10.13;;
2225;SDS011;1119;48.288;8.726;2023-04-05T02:38:59;9.77;;;8.82;;
2225;SDS011;1119;48.288;8.726;2023-04-05T02:41:47;9.20;;;8.40;;
2225;SDS011;1119;48.288;8.726;2023-04-05T02:44:35;8.65;;;6.78;;
2225;SDS011;1119;48.288;8.726;2023-04-05T02:47:23;8.20;;;7.60;;
2225;SDS011;1119;48.288;8.726;2023-04-05T02:50:16;7.05;;;6.45;;
2225;SDS011;1119;48.288;8.726;2023-04-05T02:53:05;8.02;;;7.15;;
2225;SDS011;1119;48.288;8.726;2023-04-05T02:55:55;9.48;;;8.52;;
2225;SDS011;1119;48.288;8.726;2023-04-05T02:58:44;8.20;;;7.50;;
2225;SDS011;1119;48.288;8.726;2023-04-05T03:01:37;18.10;;;7.50;;
2225;SDS011;1119;48.288;8.726;2023-04-05T03:04:29;7.85;;;7.25;;
2225;SDS011;1119;48.288;8.726;2023-04-05T03:07:21;6.30;;;5.70;;
2225;SDS011;1119;48.288;8.726;2023-04-05T03:10:12;9.57;;;5.95;;
2225;SDS011;1119;48.288;8.726;2023-04-05T03:13:12;7.05;;;6.45;;
2225;SDS011;1119;48.288;8.726;2023-04-05T03:16:01;8.65;;;6.90;;
2225;SDS011;1119;48.288;8.726;2023-04-05T03:18:48;6.68;;;6.18;;
2225;SDS011;1119;48.288;8.726;2023-04-05T03:21:36;6.57;;;6.03;;
2225;SDS011;1119;48.288;8.726;2023-04-05T03:24:33;9.07;;;6.93;;
2225;SDS011;1119;48.288;8.726;2023-04-05T03:27:24;12.70;;;7.95;;
2225;SDS011;1119;48.288;8.726;2023-04-05T03:30:29;7.03;;;5.97;;
2225;SDS011;1119;48.288;8.726;2023-04-05T03:33:24;6.72;;;6.22;;
2225;SDS011;1119;48.288;8.726;2023-04-05T03:36:12;6.80;;;6.10;;
2225;SDS011;1119;48.288;8.726;2023-04-05T03:39:03;7.38;;;6.68;;
2225;SDS011;1119;48.288;8.726;2023-04-05T03:41:51;7.07;;;6.50;;
2225;SDS011;1119;48.288;8.726;2023-04-05T03:44:39;10.32;;;7.50;;
2225;SDS011;1119;48.288;8.726;2023-04-05T03:47:28;7.30;;;6.80;;
2225;SDS011;1119;48.288;8.726;2023-04-05T03:50:19;8.02;;;7.13;;
2225;SDS011;1119;48.288;8.726;2023-04-05T03:53:06;6.68;;;6.13;;
2225;SDS011;1119;48.288;8.726;2023-04-05T03:55:54;8.57;;;7.72;;
2225;SDS011;1119;48.288;8.726;2023-04-05T03:59:01;9.52;;;7.47;;
2225;SDS011;1119;48.288;8.726;2023-04-05T04:01:49;8.98;;;8.07;;
2225;SDS011;1119;48.288;8.726;2023-04-05T04:04:40;9.43;;;8.73;;
2225;SDS011;1119;48.288;8.726;2023-04-05T04:07:28;8.77;;;6.95;;
2225;SDS011;1119;48.288;8.726;2023-04-05T04:10:16;8.77;;;8.15;;
2225;SDS011;1119;48.288;8.726;2023-04-05T04:13:08;7.57;;;6.88;;
2225;SDS011;1119;48.288;8.726;2023-04-05T04:15:56;7.30;;;6.68;;
2225;SDS011;1119;48.288;8.726;2023-04-05T04:19:05;7.15;;;6.65;;
2225;SDS011;1119;48.288;8.726;2023-04-05T04:21:54;7.75;;;7.05;;
2225;SDS011;1119;48.288;8.726;2023-04-05T04:25:08;8.80;;;7.88;;
2225;SDS011;1119;48.288;8.726;2023-04-05T04:28:15;7.63;;;7.10;;
2225;SDS011;1119;48.288;8.726;2023-04-05T04:31:39;14.48;;;7.30;;
2225;SDS011;1119;48.288;8.726;2023-04-05T04:34:50;8.32;;;7.47;;
2225;SDS011;1119;48.288;8.726;2023-04-05T04:38:09;8.02;;;7.32;;
2225;SDS011;1119;48.288;8.726;2023-04-05T04:41:23;7.05;;;6.55;;
2225;SDS011;1119;48.288;8.726;2023-04-05T04:44:40;7.85;;;7.25;;
2225;SDS011;1119;48.288;8.726;2023-04-05T04:47:47;7.60;;;7.00;;
2225;SDS011;1119;48.288;8.726;2023-04-05T04:51:04;9.15;;;7.55;;
2225;SDS011;1119;48.288;8.726;2023-04-05T04:53:55;9.60;;;8.82;;
2225;SDS011;1119;48.288;8.726;2023-04-05T04:56:43;7.20;;;6.80;;
2225;SDS011;1119;48.288;8.726;2023-04-05T04:59:31;12.32;;;6.70;;
2225;SDS011;1119;48.288;8.726;2023-04-05T05:02:22;6.53;;;6.10;;
2225;SDS011;1119;48.288;8.726;2023-04-05T05:05:10;10.20;;;7.68;;
2225;SDS011;1119;48.288;8.726;2023-04-05T05:07:58;18.25;;;12.60;;
2225;SDS011;1119;48.288;8.726;2023-04-05T05:10:49;12.13;;;10.88;;
2225;SDS011;1119;48.288;8.726;2023-04-05T05:16:53;9.45;;;8.30;;
2225;SDS011;1119;48.288;8.726;2023-04-05T05:19:45;9.82;;;8.07;;
2225;SDS011;1119;48.288;8.726;2023-04-05T05:22:33;8.27;;;7.55;;
2225;SDS011;1119;48.288;8.726;2023-04-05T05:25:21;8.13;;;6.45;;
2225;SDS011;1119;48.288;8.726;2023-04-05T05:28:10;7.45;;;6.70;;
2225;SDS011;1119;48.288;8.726;2023-04-05T05:30:57;7.00;;;6.43;;
2225;SDS011;1119;48.288;8.726;2023-04-05T05:33:45;9.40;;;8.10;;
2225;SDS011;1119;48.288;8.726;2023-04-05T05:36:34;8.23;;;7.47;;
2225;SDS011;1119;48.288;8.726;2023-04-05T05:39:22;7.55;;;6.82;;
2225;SDS011;1119;48.288;8.726;2023-04-05T05:42:09;8.43;;;7.57;;
2225;SDS011;1119;48.288;8.726;2023-04-05T05:45:00;7.60;;;7.00;;
2225;SDS011;1119;48.288;8.726;2023-04-05T05:47:49;9.27;;;8.40;;
2225;SDS011;1119;48.288;8.726;2023-04-05T05:50:37;9.27;;;8.25;;
2225;SDS011;1119;48.288;8.726;2023-04-05T05:53:26;9.70;;;8.70;;
2225;SDS011;1119;48.288;8.726;2023-04-05T05:56:14;9.20;;;8.30;;
2225;SDS011;1119;48.288;8.726;2023-04-05T05:59:01;12.97;;;10.37;;
2225;SDS011;1119;48.288;8.726;2023-04-05T06:01:50;12.53;;;9.67;;
2225;SDS011;1119;48.288;8.726;2023-04-05T06:04:38;11.47;;;10.57;;
2225;SDS011;1119;48.288;8.726;2023-04-05T06:07:26;11.17;;;10.20;;
2225;SDS011;1119;48.288;8.726;2023-04-05T06:10:14;11.30;;;10.20;;
2225;SDS011;1119;48.288;8.726;2023-04-05T06:13:02;16.90;;;15.43;;
2225;SDS011;1119;48.288;8.726;2023-04-05T06:15:49;47.17;;;44.13;;
2225;SDS011;1119;48.288;8.726;2023-04-05T06:18:42;18.05;;;16.30;;
2225;SDS011;1119;48.288;8.726;2023-04-05T06:21:29;16.80;;;15.27;;
2225;SDS011;1119;48.288;8.726;2023-04-05T06:24:17;12.20;;;11.13;;
2225;SDS011;1119;48.288;8.726;2023-04-05T06:27:05;16.03;;;14.50;;
2225;SDS011;1119;48.288;8.726;2023-04-05T06:29:53;19.47;;;17.87;;
2225;SDS011;1119;48.288;8.726;2023-04-05T06:32:41;32.17;;;30.07;;
2225;SDS011;1119;48.288;8.726;2023-04-05T06:35:30;78.13;;;71.73;;
2225;SDS011;1119;48.288;8.726;2023-04-05T06:38:18;324.23;;;289.87;;
2225;SDS011;1119;48.288;8.726;2023-04-05T06:41:05;170.43;;;153.30;;
2225;SDS011;1119;48.288;8.726;2023-04-05T06:43:53;74.20;;;66.97;;
2225;SDS011;1119;48.288;8.726;2023-04-05T06:46:41;12.90;;;11.70;;
2225;SDS011;1119;48.288;8.726;2023-04-05T06:49:29;13.30;;;12.03;;
2225;SDS011;1119;48.288;8.726;2023-04-05T06:52:18;13.57;;;12.27;;
2225;SDS011;1119;48.288;8.726;2023-04-05T06:55:05;16.87;;;14.40;;
2225;SDS011;1119;48.288;8.726;2023-04-05T06:57:54;12.13;;;11.13;;
2225;SDS011;1119;48.288;8.726;2023-04-05T07:00:41;12.60;;;11.33;;
2225;SDS011;1119;48.288;8.726;2023-04-05T07:03:29;11.43;;;10.23;;
2225;SDS011;1119;48.288;8.726;2023-04-05T07:06:18;11.87;;;10.77;;
2225;SDS011;1119;48.288;8.726;2023-04-05T07:09:09;11.57;;;10.57;;
2225;SDS011;1119;48.288;8.726;2023-04-05T07:11:57;11.70;;;10.70;;
2225;SDS011;1119;48.288;8.726;2023-04-05T07:14:46;12.13;;;11.30;;
2225;SDS011;1119;48.288;8.726;2023-04-05T07:17:33;12.30;;;10.80;;
2225;SDS011;1119;48.288;8.726;2023-04-05T07:20:21;11.90;;;10.90;;
2225;SDS011;1119;48.288;8.726;2023-04-05T07:23:08;11.67;;;10.70;;
2225;SDS011;1119;48.288;8.726;2023-04-05T07:25:59;11.00;;;9.93;;
2225;SDS011;1119;48.288;8.726;2023-04-05T07:28:50;12.13;;;11.00;;
2225;SDS011;1119;48.288;8.726;2023-04-05T07:31:38;11.73;;;10.63;;
2225;SDS011;1119;48.288;8.726;2023-04-05T07:34:26;11.93;;;10.73;;
2225;SDS011;1119;48.288;8.726;2023-04-05T07:37:13;10.70;;;9.70;;
2225;SDS011;1119;48.288;8.726;2023-04-05T07:40:01;9.37;;;8.60;;
2225;SDS011;1119;48.288;8.726;2023-04-05T07:42:52;10.27;;;9.33;;
2225;SDS011;1119;48.288;8.726;2023-04-05T07:45:40;8.57;;;7.73;;
2225;SDS011;1119;48.288;8.726;2023-04-05T07:48:27;7.77;;;7.10;;
2225;SDS011;1119;48.288;8.726;2023-04-05T07:51:15;8.77;;;7.97;;
2225;SDS011;1119;48.288;8.726;2023-04-05T07:54:03;10.13;;;9.17;;
2225;SDS011;1119;48.288;8.726;2023-04-05T07:56:52;8.57;;;7.87;;
2225;SDS011;1119;48.288;8.726;2023-04-05T07:59:41;7.67;;;6.87;;
2225;SDS011;1119;48.288;8.726;2023-04-05T08:02:29;10.53;;;8.70;;
2225;SDS011;1119;48.288;8.726;2023-04-05T08:05:17;8.50;;;7.80;;
2225;SDS011;1119;48.288;8.726;2023-04-05T08:08:04;9.67;;;8.50;;
2225;SDS011;1119;48.288;8.726;2023-04-05T08:10:55;9.60;;;8.70;;
2225;SDS011;1119;48.288;8.726;2023-04-05T08:13:43;8.97;;;8.17;;
2225;SDS011;1119;48.288;8.726;2023-04-05T08:16:32;9.50;;;8.53;;
2225;SDS011;1119;48.288;8.726;2023-04-05T08:19:20;8.63;;;8.03;;
2225;SDS011;1119;48.288;8.726;2023-04-05T08:22:08;9.13;;;8.33;;
2225;SDS011;1119;48.288;8.726;2023-04-05T08:24:56;8.60;;;8.00;;
2225;SDS011;1119;48.288;8.726;2023-04-05T08:27:43;8.63;;;8.03;;
2225;SDS011;1119;48.288;8.726;2023-04-05T08:30:31;7.77;;;7.07;;
2225;SDS011;1119;48.288;8.726;2023-04-05T08:33:20;7.10;;;6.57;;
2225;SDS011;1119;48.288;8.726;2023-04-05T08:36:08;9.53;;;8.40;;
2225;SDS011;1119;48.288;8.726;2023-04-05T08:38:57;8.03;;;7.37;;
2225;SDS011;1119;48.288;8.726;2023-04-05T08:41:49;7.00;;;6.50;;
2225;SDS011;1119;48.288;8.726;2023-04-05T08:44:45;8.10;;;7.40;;
2225;SDS011;1119;48.288;8.726;2023-04-05T08:47:38;8.30;;;7.57;;
2225;SDS011;1119;48.288;8.726;2023-04-05T08:50:27;7.73;;;7.03;;
2225;SDS011;1119;48.288;8.726;2023-04-05T08:53:15;7.70;;;7.20;;
2225;SDS011;1119;48.288;8.726;2023-04-05T08:56:03;6.50;;;5.90;;
2225;SDS011;1119;48.288;8.726;2023-04-05T08:58:52;7.20;;;6.50;;
2225;SDS011;1119;48.288;8.726;2023-04-05T09:01:48;8.53;;;7.07;;
2225;SDS011;1119;48.288;8.726;2023-04-05T09:04:37;7.07;;;6.20;;
2225;SDS011;1119;48.288;8.726;2023-04-05T09:07:30;7.23;;;6.50;;
2225;SDS011;1119;48.288;8.726;2023-04-05T09:10:18;8.87;;;7.23;;
2225;SDS011;1119;48.288;8.726;2023-04-05T09:13:07;6.00;;;5.60;;
2225;SDS011;1119;48.288;8.726;2023-04-05T09:15:56;7.10;;;6.20;;
2225;SDS011;1119;48.288;8.726;2023-04-05T09:18:47;5.70;;;5.33;;
2225;SDS011;1119;48.288;8.726;2023-04-05T09:24:45;7.77;;;6.93;;
2225;SDS011;1119;48.288;8.726;2023-04-05T09:27:41;6.53;;;6.03;;
2225;SDS011;1119;48.288;8.726;2023-04-05T09:30:44;7.20;;;6.50;;
2225;SDS011;1119;48.288;8.726;2023-04-05T09:33:32;8.20;;;7.60;;
2225;SDS011;1119;48.288;8.726;2023-04-05T09:36:20;6.70;;;6.20;;
2225;SDS011;1119;48.288;8.726;2023-04-05T09:39:08;7.57;;;7.00;;
2225;SDS011;1119;48.288;8.726;2023-04-05T09:42:04;6.97;;;6.37;;
2225;SDS011;1119;48.288;8.726;2023-04-05T09:44:55;6.33;;;5.73;;
2225;SDS011;1119;48.288;8.726;2023-04-05T09:47:53;7.20;;;6.67;;
2225;SDS011;1119;48.288;8.726;2023-04-05T09:50:42;7.20;;;6.60;;
2225;SDS011;1119;48.288;8.726;2023-04-05T09:53:30;6.40;;;6.00;;
2225;SDS011;1119;48.288;8.726;2023-04-05T09:56:17;8.53;;;7.67;;
2225;SDS011;1119;48.288;8.726;2023-04-05T09:59:07;8.53;;;7.73;;
2225;SDS011;1119;48.288;8.726;2023-04-05T10:01:56;7.00;;;6.30;;
2225;SDS011;1119;48.288;8.726;2023-04-05T10:04:44;8.60;;;7.47;;
2225;SDS011;1119;48.288;8.726;2023-04-05T10:07:33;8.50;;;7.80;;
2225;SDS011;1119;48.288;8.726;2023-04-05T10:10:22;8.70;;;8.10;;
2225;SDS011;1119;48.288;8.726;2023-04-05T10:13:11;9.70;;;8.80;;
2225;SDS011;1119;48.288;8.726;2023-04-05T10:16:01;6.77;;;6.27;;
2225;SDS011;1119;48.288;8.726;2023-04-05T10:18:52;7.40;;;6.90;;
2225;SDS011;1119;48.288;8.726;2023-04-05T10:21:40;10.67;;;6.70;;
2225;SDS011;1119;48.288;8.726;2023-04-05T10:24:32;7.97;;;7.37;;
2225;SDS011;1119;48.288;8.726;2023-04-05T10:27:27;8.00;;;7.37;;
2225;SDS011;1119;48.288;8.726;2023-04-05T10:30:17;8.97;;;8.07;;
2225;SDS011;1119;48.288;8.726;2023-04-05T10:33:15;9.93;;;7.60;;
2225;SDS011;1119;48.288;8.726;2023-04-05T10:36:08;8.57;;;7.77;;
2225;SDS011;1119;48.288;8.726;2023-04-05T10:39:07;8.47;;;7.70;;
2225;SDS011;1119;48.288;8.726;2023-04-05T10:42:00;8.63;;;8.03;;
2225;SDS011;1119;48.288;8.726;2023-04-05T10:45:02;6.20;;;5.80;;
2225;SDS011;1119;48.288;8.726;2023-04-05T10:47:56;8.57;;;7.40;;
2225;SDS011;1119;48.288;8.726;2023-04-05T10:50:52;5.13;;;4.83;;
2225;SDS011;1119;48.288;8.726;2023-04-05T10:53:42;8.43;;;7.47;;
2225;SDS011;1119;48.288;8.726;2023-04-05T10:56:31;9.17;;;8.50;;
2225;SDS011;1119;48.288;8.726;2023-04-05T10:59:19;6.77;;;6.27;;
2225;SDS011;1119;48.288;8.726;2023-04-05T11:02:08;8.17;;;7.57;;
2225;SDS011;1119;48.288;8.726;2023-04-05T11:04:56;7.83;;;7.27;;
2225;SDS011;1119;48.288;8.726;2023-04-05T11:07:50;8.83;;;8.20;;
2225;SDS011;1119;48.288;8.726;2023-04-05T11:10:41;7.83;;;7.13;;
2225;SDS011;1119;48.288;8.726;2023-04-05T11:13:47;9.80;;;9.00;;
2225;SDS011;1119;48.288;8.726;2023-04-05T11:16:37;7.13;;;6.63;;
2225;SDS011;1119;48.288;8.726;2023-04-05T11:22:36;9.23;;;8.43;;
2225;SDS011;1119;48.288;8.726;2023-04-05T11:25:25;7.67;;;7.10;;
2225;SDS011;1119;48.288;8.726;2023-04-05T11:28:21;8.60;;;8.00;;
2225;SDS011;1119;48.288;8.726;2023-04-05T11:31:15;8.00;;;7.30;;
2225;SDS011;1119;48.288;8.726;2023-04-05T11:34:05;7.63;;;7.13;;
2225;SDS011;1119;48.288;8.726;2023-04-05T11:36:55;7.73;;;7.23;;
2225;SDS011;1119;48.288;8.726;2023-04-05T11:39:43;7.80;;;7.10;;
2225;SDS011;1119;48.288;8.726;2023-04-05T11:42:32;7.30;;;6.80;;
2225;SDS011;1119;48.288;8.726;2023-04-05T11:45:20;6.63;;;6.20;;
2225;SDS011;1119;48.288;8.726;2023-04-05T11:48:10;7.40;;;6.80;;
2225;SDS011;1119;48.288;8.726;2023-04-05T11:51:00;7.37;;;6.83;;
2225;SDS011;1119;48.288;8.726;2023-04-05T11:53:54;6.50;;;6.00;;
2225;SDS011;1119;48.288;8.726;2023-04-05T11:56:49;5.90;;;5.60;;
2225;SDS011;1119;48.288;8.726;2023-04-05T11:59:39;9.40;;;7.30;;
2225;SDS011;1119;48.288;8.726;2023-04-05T12:02:26;8.40;;;7.70;;
2225;SDS011;1119;48.288;8.726;2023-04-05T12:05:14;7.93;;;7.30;;
2225;SDS011;1119;48.288;8.726;2023-04-05T12:08:02;7.90;;;7.23;;
2225;SDS011;1119;48.288;8.726;2023-04-05T12:10:53;7.50;;;7.00;;
2225;SDS011;1119;48.288;8.726;2023-04-05T12:13:42;8.33;;;7.70;;
2225;SDS011;1119;48.288;8.726;2023-04-05T12:16:33;8.93;;;8.33;;
2225;SDS011;1119;48.288;8.726;2023-04-05T12:19:20;8.83;;;7.70;;
2225;SDS011;1119;48.288;8.726;2023-04-05T12:22:08;8.70;;;8.00;;
2225;SDS011;1119;48.288;8.726;2023-04-05T12:24:56;9.63;;;8.73;;
2225;SDS011;1119;48.288;8.726;2023-04-05T12:27:44;9.60;;;8.87;;
2225;SDS011;1119;48.288;8.726;2023-04-05T12:30:32;6.77;;;6.37;;
2225;SDS011;1119;48.288;8.726;2023-04-05T12:33:27;9.17;;;8.47;;
2225;SDS011;1119;48.288;8.726;2023-04-05T12:36:17;8.17;;;7.53;;
2225;SDS011;1119;48.288;8.726;2023-04-05T12:39:05;8.60;;;7.70;;
2225;SDS011;1119;48.288;8.726;2023-04-05T12:41:57;6.30;;;5.90;;
2225;SDS011;1119;48.288;8.726;2023-04-05T12:44:45;7.13;;;6.63;;
2225;SDS011;1119;48.288;8.726;2023-04-05T12:47:51;6.70;;;6.30;;
2225;SDS011;1119;48.288;8.726;2023-04-05T12:50:44;6.53;;;6.13;;
2225;SDS011;1119;48.288;8.726;2023-04-05T12:53:33;7.43;;;6.93;;
2225;SDS011;1119;48.288;8.726;2023-04-05T12:56:20;6.97;;;6.47;;
2225;SDS011;1119;48.288;8.726;2023-04-05T12:59:08;7.87;;;7.27;;
2225;SDS011;1119;48.288;8.726;2023-04-05T13:01:55;7.50;;;6.83;;
2225;SDS011;1119;48.288;8.726;2023-04-05T13:04:43;7.20;;;5.87;;
2225;SDS011;1119;48.288;8.726;2023-04-05T13:07:32;8.80;;;8.03;;
2225;SDS011;1119;48.288;8.726;2023-04-05T13:10:20;9.60;;;7.97;;
2225;SDS011;1119;48.288;8.726;2023-04-05T13:13:10;7.67;;;7.17;;
2225;SDS011;1119;48.288;8.726;2023-04-05T13:15:59;6.90;;;6.50;;
2225;SDS011;1119;48.288;8.726;2023-04-05T13:18:46;11.20;;;8.23;;
2225;SDS011;1119;48.288;8.726;2023-04-05T13:21:34;7.57;;;6.97;;
2225;SDS011;1119;48.288;8.726;2023-04-05T13:24:23;6.63;;;6.23;;
2225;SDS011;1119;48.288;8.726;2023-04-05T13:27:11;6.70;;;6.20;;
2225;SDS011;1119;48.288;8.726;2023-04-05T13:29:58;7.13;;;6.63;;
2225;SDS011;1119;48.288;8.726;2023-04-05T13:32:46;6.67;;;6.17;;
2225;SDS011;1119;48.288;8.726;2023-04-05T13:35:33;10.00;;;8.20;;
2225;SDS011;1119;48.288;8.726;2023-04-05T13:38:21;7.80;;;7.20;;
2225;SDS011;1119;48.288;8.726;2023-04-05T13:41:10;7.00;;;6.60;;
2225;SDS011;1119;48.288;8.726;2023-04-05T13:44:00;6.87;;;6.30;;
2225;SDS011;1119;48.288;8.726;2023-04-05T13:46:48;6.70;;;6.30;;
2225;SDS011;1119;48.288;8.726;2023-04-05T13:49:35;7.67;;;7.00;;
2225;SDS011;1119;48.288;8.726;2023-04-05T13:52:23;7.83;;;7.13;;
2225;SDS011;1119;48.288;8.726;2023-04-05T13:55:11;8.97;;;6.90;;
2225;SDS011;1119;48.288;8.726;2023-04-05T13:58:00;6.17;;;5.67;;
2225;SDS011;1119;48.288;8.726;2023-04-05T14:00:48;5.93;;;5.50;;
2225;SDS011;1119;48.288;8.726;2023-04-05T14:03:36;12.70;;;6.93;;
2225;SDS011;1119;48.288;8.726;2023-04-05T14:06:24;8.20;;;7.40;;
2225;SDS011;1119;48.288;8.726;2023-04-05T14:09:11;6.63;;;6.10;;
2225;SDS011;1119;48.288;8.726;2023-04-05T14:11:59;8.43;;;7.63;;
2225;SDS011;1119;48.288;8.726;2023-04-05T14:14:48;6.30;;;5.90;;
2225;SDS011;1119;48.288;8.726;2023-04-05T14:17:36;6.87;;;6.37;;
2225;SDS011;1119;48.288;8.726;2023-04-05T14:20:23;7.70;;;7.10;;
2225;SDS011;1119;48.288;8.726;2023-04-05T14:23:11;6.47;;;5.87;;
2225;SDS011;1119;48.288;8.726;2023-04-05T14:25:59;7.70;;;7.00;;
2225;SDS011;1119;48.288;8.726;2023-04-05T14:28:47;6.43;;;6.03;;
2225;SDS011;1119;48.288;8.726;2023-04-05T14:31:44;8.20;;;6.20;;
2225;SDS011;1119;48.288;8.726;2023-04-05T14:34:32;6.80;;;6.23;;
2225;SDS011;1119;48.288;8.726;2023-04-05T14:37:24;7.03;;;6.47;;
2225;SDS011;1119;48.288;8.726;2023-04-05T14:40:12;7.20;;;6.70;;
2225;SDS011;1119;48.288;8.726;2023-04-05T14:43:00;6.53;;;6.03;;
2225;SDS011;1119;48.288;8.726;2023-04-05T14:45:48;6.53;;;6.13;;
2225;SDS011;1119;48.288;8.726;2023-04-05T14:48:37;6.80;;;6.20;;
2225;SDS011;1119;48.288;8.726;2023-04-05T14:51:25;5.50;;;5.20;;
2225;SDS011;1119;48.288;8.726;2023-04-05T14:54:13;5.70;;;5.30;;
2225;SDS011;1119;48.288;8.726;2023-04-05T14:57:00;7.53;;;6.83;;
2225;SDS011;1119;48.288;8.726;2023-04-05T14:59:48;6.87;;;6.37;;
2225;SDS011;1119;48.288;8.726;2023-04-05T15:02:36;6.10;;;5.70;;
2225;SDS011;1119;48.288;8.726;2023-04-05T15:05:25;7.03;;;6.33;;
2225;SDS011;1119;48.288;8.726;2023-04-05T15:08:12;6.03;;;5.53;;
2225;SDS011;1119;48.288;8.726;2023-04-05T15:11:00;6.73;;;6.23;;
2225;SDS011;1119;48.288;8.726;2023-04-05T15:13:48;6.37;;;5.97;;
2225;SDS011;1119;48.288;8.726;2023-04-05T15:16:36;6.10;;;5.63;;
2225;SDS011;1119;48.288;8.726;2023-04-05T15:19:23;6.53;;;5.77;;
2225;SDS011;1119;48.288;8.726;2023-04-05T15:22:13;6.70;;;6.13;;
2225;SDS011;1119;48.288;8.726;2023-04-05T15:25:02;5.97;;;5.57;;
2225;SDS011;1119;48.288;8.726;2023-04-05T15:27:50;10.13;;;5.70;;
2225;SDS011;1119;48.288;8.726;2023-04-05T15:30:39;6.20;;;5.70;;
2225;SDS011;1119;48.288;8.726;2023-04-05T15:33:27;5.95;;;5.45;;
2225;SDS011;1119;48.288;8.726;2023-04-05T15:36:15;6.23;;;5.77;;
2225;SDS011;1119;48.288;8.726;2023-04-05T15:39:04;5.57;;;5.13;;
2225;SDS011;1119;48.288;8.726;2023-04-05T15:41:52;6.80;;;6.20;;
2225;SDS011;1119;48.288;8.726;2023-04-05T15:44:42;6.87;;;6.40;;
2225;SDS011;1119;48.288;8.726;2023-04-05T15:47:29;8.00;;;7.23;;
2225;SDS011;1119;48.288;8.726;2023-04-05T15:50:17;18.23;;;16.90;;
2225;SDS011;1119;48.288;8.726;2023-04-05T15:53:06;6.60;;;6.00;;
2225;SDS011;1119;48.288;8.726;2023-04-05T15:55:55;5.87;;;5.33;;
2225;SDS011;1119;48.288;8.726;2023-04-05T15:58:43;6.37;;;5.87;;
2225;SDS011;1119;48.288;8.726;2023-04-05T16:01:31;8.50;;;6.40;;
2225;SDS011;1119;48.288;8.726;2023-04-05T16:04:19;6.40;;;5.80;;
2225;SDS011;1119;48.288;8.726;2023-04-05T16:07:07;7.23;;;6.63;;
2225;SDS011;1119;48.288;8.726;2023-04-05T16:09:55;6.13;;;5.73;;
2225;SDS011;1119;48.288;8.726;2023-04-05T16:12:44;6.47;;;5.97;;
2225;SDS011;1119;48.288;8.726;2023-04-05T16:15:32;8.73;;;6.03;;
2225;SDS011;1119;48.288;8.726;2023-04-05T16:18:19;5.67;;;5.20;;
2225;SDS011;1119;48.288;8.726;2023-04-05T16:21:08;6.70;;;6.10;;
2225;SDS011;1119;48.288;8.726;2023-04-05T16:23:56;7.57;;;6.93;;
2225;SDS011;1119;48.288;8.726;2023-04-05T16:26:45;5.67;;;5.27;;
2225;SDS011;1119;48.288;8.726;2023-04-05T16:29:34;6.93;;;6.43;;
2225;SDS011;1119;48.288;8.726;2023-04-05T16:32:22;6.40;;;5.90;;
2225;SDS011;1119;48.288;8.726;2023-04-05T16:35:10;10.23;;;7.27;;
2225;SDS011;1119;48.288;8.726;2023-04-05T16:37:57;8.30;;;6.67;;
2225;SDS011;1119;48.288;8.726;2023-04-05T16:40:45;4.40;;;4.10;;
2225;SDS011;1119;48.288;8.726;2023-04-05T16:43:32;5.27;;;4.97;;
2225;SDS011;1119;48.288;8.726;2023-04-05T16:46:22;5.10;;;4.37;;
2225;SDS011;1119;48.288;8.726;2023-04-05T16:49:09;6.13;;;5.23;;
2225;SDS011;1119;48.288;8.726;2023-04-05T16:51:57;6.00;;;5.47;;
2225;SDS011;1119;48.288;8.726;2023-04-05T16:54:45;6.40;;;5.87;;
2225;SDS011;1119;48.288;8.726;2023-04-05T16:57:33;5.83;;;5.43;;
2225;SDS011;1119;48.288;8.726;2023-04-05T17:00:21;5.97;;;5.57;;
2225;SDS011;1119;48.288;8.726;2023-04-05T17:03:10;6.80;;;6.10;;
2225;SDS011;1119;48.288;8.726;2023-04-05T17:05:58;6.60;;;5.77;;
2225;SDS011;1119;48.288;8.726;2023-04-05T17:08:46;6.60;;;6.10;;
2225;SDS011;1119;48.288;8.726;2023-04-05T17:14:32;6.73;;;6.33;;
2225;SDS011;1119;48.288;8.726;2023-04-05T17:17:20;6.77;;;6.27;;
2225;SDS011;1119;48.288;8.726;2023-04-05T17:20:12;6.60;;;6.03;;
2225;SDS011;1119;48.288;8.726;2023-04-05T17:23:01;6.50;;;5.90;;
2225;SDS011;1119;48.288;8.726;2023-04-05T17:25:48;5.67;;;5.20;;
2225;SDS011;1119;48.288;8.726;2023-04-05T17:28:36;11.10;;;7.30;;
2225;SDS011;1119;48.288;8.726;2023-04-05T17:31:24;7.60;;;6.80;;
2225;SDS011;1119;48.288;8.726;2023-04-05T17:34:11;7.00;;;6.50;;
2225;SDS011;1119;48.288;8.726;2023-04-05T17:37:03;8.43;;;6.67;;
2225;SDS011;1119;48.288;8.726;2023-04-05T17:39:51;7.70;;;7.10;;
2225;SDS011;1119;48.288;8.726;2023-04-05T17:42:39;7.53;;;6.83;;
2225;SDS011;1119;48.288;8.726;2023-04-05T17:45:28;7.97;;;7.27;;